Catania, Italy

4:12 AM CEST on August 31, 2016 (GMT +0200)
Zona Industriale - Catania | | Change Station

Elev 60 ft 37.45 °N, 15.04 °E | Updated 10 seconds ago

Clear
Clear
69.3 °F
Feels Like 69.3 °F
N
2.0
Wind Variable Wind from WSW
Gusts 3.0 mph

Today
High -- | Low -- °F
--% Chance of Precip.
Yesterday
High -- | Low -- °F
Precip. -- in
Pressure 30.04 in
Visibility -9999.0 miles
Clouds
Dew Point 63 °F
Humidity 81%
Rainfall 0.00 in
Snow Depth Not available.
6:29 AM 7:29 PM
Waning Crescent, 2% visible
METAR LICZ 310155Z 27004KT CAVOK 21/19 Q1017 RMK SKC VIS MIN 9999 WIND THR28 26005KT WIND THR10 26005KT A3006 BLU
Pressure 30.04 in
Visibility -9999.0 miles
Clouds
Dew Point 63 °F
Humidity 81%
Rainfall 0.00 in
Snow Depth Not available.
6:29 AM 7:29 PM
Waning Crescent, 2% visible
METAR LICZ 310155Z 27004KT CAVOK 21/19 Q1017 RMK SKC VIS MIN 9999 WIND THR28 26005KT WIND THR10 26005KT A3006 BLU

10-Day Weather Forecast

×

Almanac

Astronomy

Aug. 31, 2016 Rise Set
Actual Time
Civil Twilight
Nautical Twilight
Astronomical Twilight
Moon
Length of Visible Light
Length of Day
Tomorrow will be .
, % of the Moon is Illuminated

Today's Extremes

Country Highs Country Lows

Community

WunderPhotos

Upload Photos

1,935,993 photos uploaded!

WunderBlog® & News

Nearby

Air Quality

  Air Quality AQ Index Pollutant
Not available.

Snow Depth

Station Depth Elevation

Earthquake Activity

City Distance Mag. Time & Date
Minimum magnitude displayed is 2.5.

Coastal Water Temperatures

Place Temperature

Stations

Nearby Weather Stations

Station Location Temp. Windchill Dew Point Humidity Wind Precip. Elev Updated Type